sensor_id;sensor_type;location;lat;lon;timestamp;P1;durP1;ratioP1;P2;durP2;ratioP2
5774;SDS011;2913;51.120;6.772;2023-03-01T00:01:12;16.50;;;7.65;;
5774;SDS011;2913;51.120;6.772;2023-03-01T00:03:43;18.48;;;7.90;;
5774;SDS011;2913;51.120;6.772;2023-03-01T00:06:13;17.17;;;7.88;;
5774;SDS011;2913;51.120;6.772;2023-03-01T00:08:39;14.93;;;7.63;;
5774;SDS011;2913;51.120;6.772;2023-03-01T00:13:33;17.05;;;8.40;;
5774;SDS011;2913;51.120;6.772;2023-03-01T00:16:01;17.63;;;7.50;;
5774;SDS011;2913;51.120;6.772;2023-03-01T00:18:31;16.52;;;8.05;;
5774;SDS011;2913;51.120;6.772;2023-03-01T00:20:57;16.90;;;8.25;;
5774;SDS011;2913;51.120;6.772;2023-03-01T00:23:23;21.10;;;8.52;;
5774;SDS011;2913;51.120;6.772;2023-03-01T00:25:49;17.63;;;8.88;;
5774;SDS011;2913;51.120;6.772;2023-03-01T00:28:17;17.58;;;8.85;;
5774;SDS011;2913;51.120;6.772;2023-03-01T00:30:43;13.25;;;7.88;;
5774;SDS011;2913;51.120;6.772;2023-03-01T00:33:09;19.10;;;7.70;;
5774;SDS011;2913;51.120;6.772;2023-03-01T00:35:35;17.30;;;7.75;;
5774;SDS011;2913;51.120;6.772;2023-03-01T00:38:01;22.75;;;8.05;;
5774;SDS011;2913;51.120;6.772;2023-03-01T00:40:31;17.95;;;7.78;;
5774;SDS011;2913;51.120;6.772;2023-03-01T00:42:58;17.27;;;8.98;;
5774;SDS011;2913;51.120;6.772;2023-03-01T00:45:27;16.05;;;7.65;;
5774;SDS011;2913;51.120;6.772;2023-03-01T00:47:56;18.90;;;7.90;;
5774;SDS011;2913;51.120;6.772;2023-03-01T00:50:23;21.08;;;8.07;;
5774;SDS011;2913;51.120;6.772;2023-03-01T00:52:52;17.25;;;9.00;;
5774;SDS011;2913;51.120;6.772;2023-03-01T00:55:23;17.60;;;8.82;;
5774;SDS011;2913;51.120;6.772;2023-03-01T00:57:49;18.55;;;8.57;;
5774;SDS011;2913;51.120;6.772;2023-03-01T01:00:18;18.88;;;8.82;;
5774;SDS011;2913;51.120;6.772;2023-03-01T01:02:46;18.52;;;8.93;;
5774;SDS011;2913;51.120;6.772;2023-03-01T01:05:14;22.35;;;9.60;;
5774;SDS011;2913;51.120;6.772;2023-03-01T01:07:46;18.02;;;8.30;;
5774;SDS011;2913;51.120;6.772;2023-03-01T01:10:14;21.33;;;8.77;;
5774;SDS011;2913;51.120;6.772;2023-03-01T01:12:42;18.95;;;8.15;;
5774;SDS011;2913;51.120;6.772;2023-03-01T01:15:08;16.63;;;7.93;;
5774;SDS011;2913;51.120;6.772;2023-03-01T01:17:37;18.88;;;8.60;;
5774;SDS011;2913;51.120;6.772;2023-03-01T01:20:02;17.70;;;8.52;;
5774;SDS011;2913;51.120;6.772;2023-03-01T01:22:28;18.48;;;8.48;;
5774;SDS011;2913;51.120;6.772;2023-03-01T01:24:54;18.17;;;8.57;;
5774;SDS011;2913;51.120;6.772;2023-03-01T01:27:20;19.42;;;9.13;;
5774;SDS011;2913;51.120;6.772;2023-03-01T01:29:45;22.98;;;9.15;;
5774;SDS011;2913;51.120;6.772;2023-03-01T01:32:11;18.30;;;8.65;;
5774;SDS011;2913;51.120;6.772;2023-03-01T01:34:39;17.10;;;7.93;;
5774;SDS011;2913;51.120;6.772;2023-03-01T01:37:04;18.77;;;8.60;;
5774;SDS011;2913;51.120;6.772;2023-03-01T01:39:33;15.65;;;7.97;;
5774;SDS011;2913;51.120;6.772;2023-03-01T01:42:00;23.88;;;8.88;;
5774;SDS011;2913;51.120;6.772;2023-03-01T01:44:27;15.20;;;8.30;;
5774;SDS011;2913;51.120;6.772;2023-03-01T01:49:31;17.23;;;8.68;;
5774;SDS011;2913;51.120;6.772;2023-03-01T01:52:03;15.95;;;7.70;;
5774;SDS011;2913;51.120;6.772;2023-03-01T01:54:41;25.00;;;9.70;;
5774;SDS011;2913;51.120;6.772;2023-03-01T01:57:22;21.77;;;9.27;;
5774;SDS011;2913;51.120;6.772;2023-03-01T01:59:53;21.80;;;9.65;;
5774;SDS011;2913;51.120;6.772;2023-03-01T02:02:23;29.58;;;9.40;;
5774;SDS011;2913;51.120;6.772;2023-03-01T02:04:49;21.15;;;8.85;;
5774;SDS011;2913;51.120;6.772;2023-03-01T02:07:28;21.48;;;9.60;;
5774;SDS011;2913;51.120;6.772;2023-03-01T02:09:55;18.13;;;8.52;;
5774;SDS011;2913;51.120;6.772;2023-03-01T02:12:23;29.83;;;9.32;;
5774;SDS011;2913;51.120;6.772;2023-03-01T02:14:52;19.73;;;8.65;;
5774;SDS011;2913;51.120;6.772;2023-03-01T02:17:18;22.00;;;9.90;;
5774;SDS011;2913;51.120;6.772;2023-03-01T02:22:28;29.10;;;9.40;;
5774;SDS011;2913;51.120;6.772;2023-03-01T02:30:35;19.77;;;8.82;;
5774;SDS011;2913;51.120;6.772;2023-03-01T02:33:24;17.85;;;8.50;;
5774;SDS011;2913;51.120;6.772;2023-03-01T02:35:53;19.33;;;9.38;;
5774;SDS011;2913;51.120;6.772;2023-03-01T02:38:20;19.67;;;9.50;;
5774;SDS011;2913;51.120;6.772;2023-03-01T02:40:47;18.08;;;9.60;;
5774;SDS011;2913;51.120;6.772;2023-03-01T02:43:18;24.05;;;9.57;;
5774;SDS011;2913;51.120;6.772;2023-03-01T02:45:49;20.85;;;8.65;;
5774;SDS011;2913;51.120;6.772;2023-03-01T02:48:19;17.45;;;9.18;;
5774;SDS011;2913;51.120;6.772;2023-03-01T02:56:16;20.38;;;9.35;;
5774;SDS011;2913;51.120;6.772;2023-03-01T02:58:42;17.75;;;7.95;;
5774;SDS011;2913;51.120;6.772;2023-03-01T03:01:16;24.20;;;9.70;;
5774;SDS011;2913;51.120;6.772;2023-03-01T03:03:43;18.10;;;8.10;;
5774;SDS011;2913;51.120;6.772;2023-03-01T03:06:11;16.88;;;8.82;;
5774;SDS011;2913;51.120;6.772;2023-03-01T03:08:36;18.85;;;8.75;;
5774;SDS011;2913;51.120;6.772;2023-03-01T03:11:04;18.15;;;8.13;;
5774;SDS011;2913;51.120;6.772;2023-03-01T03:13:30;20.00;;;9.23;;
5774;SDS011;2913;51.120;6.772;2023-03-01T03:15:57;17.45;;;8.10;;
5774;SDS011;2913;51.120;6.772;2023-03-01T03:18:23;29.23;;;8.32;;
5774;SDS011;2913;51.120;6.772;2023-03-01T03:20:53;17.25;;;8.48;;
5774;SDS011;2913;51.120;6.772;2023-03-01T03:23:20;18.25;;;8.10;;
5774;SDS011;2913;51.120;6.772;2023-03-01T03:25:49;29.35;;;9.45;;
5774;SDS011;2913;51.120;6.772;2023-03-01T03:28:17;17.60;;;8.15;;
5774;SDS011;2913;51.120;6.772;2023-03-01T03:30:43;23.10;;;8.48;;
5774;SDS011;2913;51.120;6.772;2023-03-01T03:33:10;21.67;;;9.02;;
5774;SDS011;2913;51.120;6.772;2023-03-01T03:35:44;18.58;;;8.65;;
5774;SDS011;2913;51.120;6.772;2023-03-01T03:38:11;16.58;;;8.05;;
5774;SDS011;2913;51.120;6.772;2023-03-01T03:40:42;16.90;;;8.60;;
5774;SDS011;2913;51.120;6.772;2023-03-01T03:43:17;21.88;;;8.43;;
5774;SDS011;2913;51.120;6.772;2023-03-01T03:45:48;17.35;;;8.25;;
5774;SDS011;2913;51.120;6.772;2023-03-01T03:48:17;17.80;;;8.68;;
5774;SDS011;2913;51.120;6.772;2023-03-01T03:50:47;18.13;;;8.93;;
5774;SDS011;2913;51.120;6.772;2023-03-01T03:53:18;18.13;;;8.90;;
5774;SDS011;2913;51.120;6.772;2023-03-01T03:55:45;19.90;;;8.95;;
5774;SDS011;2913;51.120;6.772;2023-03-01T03:58:16;21.67;;;9.10;;
5774;SDS011;2913;51.120;6.772;2023-03-01T04:00:44;23.33;;;9.45;;
5774;SDS011;2913;51.120;6.772;2023-03-01T04:03:17;20.80;;;8.50;;
5774;SDS011;2913;51.120;6.772;2023-03-01T04:05:45;17.58;;;8.85;;
5774;SDS011;2913;51.120;6.772;2023-03-01T04:08:11;16.70;;;8.73;;
5774;SDS011;2913;51.120;6.772;2023-03-01T04:10:38;26.30;;;8.27;;
5774;SDS011;2913;51.120;6.772;2023-03-01T04:13:10;23.63;;;9.57;;
5774;SDS011;2913;51.120;6.772;2023-03-01T04:15:39;18.65;;;9.10;;
5774;SDS011;2913;51.120;6.772;2023-03-01T04:18:05;20.92;;;7.95;;
5774;SDS011;2913;51.120;6.772;2023-03-01T04:20:33;19.23;;;8.45;;
5774;SDS011;2913;51.120;6.772;2023-03-01T04:25:49;20.90;;;9.30;;
5774;SDS011;2913;51.120;6.772;2023-03-01T04:28:32;20.85;;;9.05;;
5774;SDS011;2913;51.120;6.772;2023-03-01T04:31:02;19.00;;;8.75;;
5774;SDS011;2913;51.120;6.772;2023-03-01T04:33:38;21.05;;;8.85;;
5774;SDS011;2913;51.120;6.772;2023-03-01T04:36:10;18.08;;;8.77;;
5774;SDS011;2913;51.120;6.772;2023-03-01T04:38:39;22.40;;;9.82;;
5774;SDS011;2913;51.120;6.772;2023-03-01T04:41:08;17.52;;;9.07;;
5774;SDS011;2913;51.120;6.772;2023-03-01T04:46:06;19.95;;;8.60;;
5774;SDS011;2913;51.120;6.772;2023-03-01T04:48:39;19.67;;;8.85;;
5774;SDS011;2913;51.120;6.772;2023-03-01T04:51:06;15.85;;;8.45;;
5774;SDS011;2913;51.120;6.772;2023-03-01T04:53:33;20.75;;;9.15;;
5774;SDS011;2913;51.120;6.772;2023-03-01T04:56:03;23.17;;;9.60;;
5774;SDS011;2913;51.120;6.772;2023-03-01T04:58:29;19.70;;;8.63;;
5774;SDS011;2913;51.120;6.772;2023-03-01T05:00:55;25.73;;;9.60;;
5774;SDS011;2913;51.120;6.772;2023-03-01T05:03:25;18.40;;;9.18;;
5774;SDS011;2913;51.120;6.772;2023-03-01T05:05:53;22.83;;;8.57;;
5774;SDS011;2913;51.120;6.772;2023-03-01T05:08:25;21.73;;;9.90;;
5774;SDS011;2913;51.120;6.772;2023-03-01T05:10:52;25.27;;;10.38;;
5774;SDS011;2913;51.120;6.772;2023-03-01T05:13:22;18.73;;;9.00;;
5774;SDS011;2913;51.120;6.772;2023-03-01T05:15:58;28.38;;;10.73;;
5774;SDS011;2913;51.120;6.772;2023-03-01T05:18:30;20.45;;;9.85;;
5774;SDS011;2913;51.120;6.772;2023-03-01T05:21:04;21.67;;;9.65;;
5774;SDS011;2913;51.120;6.772;2023-03-01T05:25:59;17.75;;;8.93;;
5774;SDS011;2913;51.120;6.772;2023-03-01T05:28:27;23.52;;;9.48;;
5774;SDS011;2913;51.120;6.772;2023-03-01T05:30:53;22.30;;;9.55;;
5774;SDS011;2913;51.120;6.772;2023-03-01T05:33:22;19.65;;;9.10;;
5774;SDS011;2913;51.120;6.772;2023-03-01T05:35:49;20.05;;;9.23;;
5774;SDS011;2913;51.120;6.772;2023-03-01T05:38:16;24.88;;;10.60;;
5774;SDS011;2913;51.120;6.772;2023-03-01T05:40:46;21.88;;;10.27;;
5774;SDS011;2913;51.120;6.772;2023-03-01T05:43:13;23.52;;;9.43;;
5774;SDS011;2913;51.120;6.772;2023-03-01T05:45:41;18.75;;;9.60;;
5774;SDS011;2913;51.120;6.772;2023-03-01T05:48:09;24.42;;;9.88;;
5774;SDS011;2913;51.120;6.772;2023-03-01T05:50:40;23.30;;;10.07;;
5774;SDS011;2913;51.120;6.772;2023-03-01T05:53:18;30.73;;;10.40;;
5774;SDS011;2913;51.120;6.772;2023-03-01T05:55:48;24.20;;;10.05;;
5774;SDS011;2913;51.120;6.772;2023-03-01T05:58:17;24.77;;;10.05;;
5774;SDS011;2913;51.120;6.772;2023-03-01T06:00:47;28.20;;;10.30;;
5774;SDS011;2913;51.120;6.772;2023-03-01T06:03:14;22.83;;;10.15;;
5774;SDS011;2913;51.120;6.772;2023-03-01T06:05:42;18.85;;;9.55;;
5774;SDS011;2913;51.120;6.772;2023-03-01T06:08:09;17.85;;;9.00;;
5774;SDS011;2913;51.120;6.772;2023-03-01T06:10:35;24.80;;;10.00;;
5774;SDS011;2913;51.120;6.772;2023-03-01T06:13:02;19.55;;;9.50;;
5774;SDS011;2913;51.120;6.772;2023-03-01T06:15:29;23.20;;;9.50;;
5774;SDS011;2913;51.120;6.772;2023-03-01T06:17:57;23.13;;;9.90;;
5774;SDS011;2913;51.120;6.772;2023-03-01T06:20:24;21.15;;;10.05;;
5774;SDS011;2913;51.120;6.772;2023-03-01T06:22:53;20.95;;;9.50;;
5774;SDS011;2913;51.120;6.772;2023-03-01T06:25:22;21.23;;;10.13;;
5774;SDS011;2913;51.120;6.772;2023-03-01T06:27:50;31.67;;;9.57;;
5774;SDS011;2913;51.120;6.772;2023-03-01T06:30:17;21.52;;;10.02;;
5774;SDS011;2913;51.120;6.772;2023-03-01T06:32:45;23.42;;;9.13;;
5774;SDS011;2913;51.120;6.772;2023-03-01T06:35:11;26.70;;;9.82;;
5774;SDS011;2913;51.120;6.772;2023-03-01T06:37:39;25.38;;;10.40;;
5774;SDS011;2913;51.120;6.772;2023-03-01T06:40:06;23.00;;;9.93;;
5774;SDS011;2913;51.120;6.772;2023-03-01T06:42:36;23.65;;;10.40;;
5774;SDS011;2913;51.120;6.772;2023-03-01T06:45:06;22.15;;;10.68;;
5774;SDS011;2913;51.120;6.772;2023-03-01T06:47:33;25.83;;;10.52;;
5774;SDS011;2913;51.120;6.772;2023-03-01T06:49:59;23.20;;;10.25;;
5774;SDS011;2913;51.120;6.772;2023-03-01T06:52:25;25.73;;;11.20;;
5774;SDS011;2913;51.120;6.772;2023-03-01T06:54:53;20.20;;;10.35;;
5774;SDS011;2913;51.120;6.772;2023-03-01T06:57:18;30.02;;;10.95;;
5774;SDS011;2913;51.120;6.772;2023-03-01T06:59:47;27.55;;;10.82;;
5774;SDS011;2913;51.120;6.772;2023-03-01T07:02:15;22.50;;;10.38;;
5774;SDS011;2913;51.120;6.772;2023-03-01T07:04:43;26.80;;;10.93;;
5774;SDS011;2913;51.120;6.772;2023-03-01T07:07:13;26.65;;;10.05;;
5774;SDS011;2913;51.120;6.772;2023-03-01T07:09:39;23.27;;;10.15;;
5774;SDS011;2913;51.120;6.772;2023-03-01T07:12:05;25.02;;;10.35;;
5774;SDS011;2913;51.120;6.772;2023-03-01T07:14:33;31.50;;;10.85;;
5774;SDS011;2913;51.120;6.772;2023-03-01T07:16:58;33.15;;;11.85;;
5774;SDS011;2913;51.120;6.772;2023-03-01T07:19:24;26.05;;;11.55;;
5774;SDS011;2913;51.120;6.772;2023-03-01T07:21:52;27.17;;;11.70;;
5774;SDS011;2913;51.120;6.772;2023-03-01T07:24:20;29.98;;;11.23;;
5774;SDS011;2913;51.120;6.772;2023-03-01T07:26:50;23.40;;;10.98;;
5774;SDS011;2913;51.120;6.772;2023-03-01T07:29:16;27.27;;;11.15;;
5774;SDS011;2913;51.120;6.772;2023-03-01T07:31:43;25.50;;;10.45;;
5774;SDS011;2913;51.120;6.772;2023-03-01T07:34:08;27.52;;;11.38;;
5774;SDS011;2913;51.120;6.772;2023-03-01T07:36:38;38.03;;;11.55;;
5774;SDS011;2913;51.120;6.772;2023-03-01T07:39:04;24.73;;;10.75;;
5774;SDS011;2913;51.120;6.772;2023-03-01T07:41:30;28.92;;;10.52;;
5774;SDS011;2913;51.120;6.772;2023-03-01T07:43:55;24.65;;;10.93;;
5774;SDS011;2913;51.120;6.772;2023-03-01T07:46:21;24.48;;;11.20;;
5774;SDS011;2913;51.120;6.772;2023-03-01T07:48:46;29.55;;;11.80;;
5774;SDS011;2913;51.120;6.772;2023-03-01T07:51:12;36.85;;;12.02;;
5774;SDS011;2913;51.120;6.772;2023-03-01T07:53:38;27.38;;;13.05;;
5774;SDS011;2913;51.120;6.772;2023-03-01T07:56:06;26.95;;;12.20;;
5774;SDS011;2913;51.120;6.772;2023-03-01T07:58:37;27.97;;;12.27;;
5774;SDS011;2913;51.120;6.772;2023-03-01T08:01:09;31.40;;;11.38;;
5774;SDS011;2913;51.120;6.772;2023-03-01T08:03:36;24.13;;;11.15;;
5774;SDS011;2913;51.120;6.772;2023-03-01T08:06:03;26.02;;;11.98;;
5774;SDS011;2913;51.120;6.772;2023-03-01T08:08:30;24.95;;;11.63;;
5774;SDS011;2913;51.120;6.772;2023-03-01T08:10:57;25.45;;;12.30;;
5774;SDS011;2913;51.120;6.772;2023-03-01T08:13:23;24.52;;;11.57;;
5774;SDS011;2913;51.120;6.772;2023-03-01T08:15:49;25.95;;;11.75;;
5774;SDS011;2913;51.120;6.772;2023-03-01T08:18:15;28.17;;;11.75;;
5774;SDS011;2913;51.120;6.772;2023-03-01T08:20:42;32.22;;;12.30;;
5774;SDS011;2913;51.120;6.772;2023-03-01T08:23:10;24.30;;;11.90;;
5774;SDS011;2913;51.120;6.772;2023-03-01T08:25:36;28.92;;;13.02;;
5774;SDS011;2913;51.120;6.772;2023-03-01T08:28:02;44.30;;;18.95;;
5774;SDS011;2913;51.120;6.772;2023-03-01T08:30:27;33.25;;;14.60;;
5774;SDS011;2913;51.120;6.772;2023-03-01T08:32:54;26.13;;;12.80;;
5774;SDS011;2913;51.120;6.772;2023-03-01T08:35:19;23.95;;;12.40;;
5774;SDS011;2913;51.120;6.772;2023-03-01T08:37:45;25.75;;;11.93;;
5774;SDS011;2913;51.120;6.772;2023-03-01T08:40:13;28.88;;;13.40;;
5774;SDS011;2913;51.120;6.772;2023-03-01T08:42:39;27.58;;;11.73;;
5774;SDS011;2913;51.120;6.772;2023-03-01T08:45:08;27.90;;;12.02;;
5774;SDS011;2913;51.120;6.772;2023-03-01T08:47:35;23.67;;;12.00;;
5774;SDS011;2913;51.120;6.772;2023-03-01T08:50:04;24.95;;;12.65;;
5774;SDS011;2913;51.120;6.772;2023-03-01T08:52:31;27.95;;;12.90;;
5774;SDS011;2913;51.120;6.772;2023-03-01T08:54:59;26.75;;;11.60;;
5774;SDS011;2913;51.120;6.772;2023-03-01T08:57:27;36.53;;;12.65;;
5774;SDS011;2913;51.120;6.772;2023-03-01T08:59:55;23.25;;;12.85;;
5774;SDS011;2913;51.120;6.772;2023-03-01T09:02:21;22.55;;;11.05;;
5774;SDS011;2913;51.120;6.772;2023-03-01T09:04:46;25.15;;;10.27;;
5774;SDS011;2913;51.120;6.772;2023-03-01T09:07:12;30.00;;;11.88;;
5774;SDS011;2913;51.120;6.772;2023-03-01T09:09:38;24.77;;;10.82;;
5774;SDS011;2913;51.120;6.772;2023-03-01T09:12:03;29.08;;;12.23;;
5774;SDS011;2913;51.120;6.772;2023-03-01T09:14:32;23.70;;;10.60;;
5774;SDS011;2913;51.120;6.772;2023-03-01T09:16:57;29.08;;;10.75;;
5774;SDS011;2913;51.120;6.772;2023-03-01T09:19:27;25.13;;;10.90;;
5774;SDS011;2913;51.120;6.772;2023-03-01T09:21:53;26.20;;;10.95;;
5774;SDS011;2913;51.120;6.772;2023-03-01T09:24:23;21.90;;;8.75;;
5774;SDS011;2913;51.120;6.772;2023-03-01T09:26:51;22.30;;;8.93;;
5774;SDS011;2913;51.120;6.772;2023-03-01T09:29:21;27.25;;;11.30;;
5774;SDS011;2913;51.120;6.772;2023-03-01T09:31:47;24.80;;;11.25;;
5774;SDS011;2913;51.120;6.772;2023-03-01T09:34:13;23.45;;;9.85;;
5774;SDS011;2913;51.120;6.772;2023-03-01T09:36:41;22.52;;;10.95;;
5774;SDS011;2913;51.120;6.772;2023-03-01T09:39:09;20.35;;;9.55;;
5774;SDS011;2913;51.120;6.772;2023-03-01T09:41:56;25.55;;;9.48;;
5774;SDS011;2913;51.120;6.772;2023-03-01T09:47:20;17.95;;;7.85;;
5774;SDS011;2913;51.120;6.772;2023-03-01T09:52:46;21.35;;;9.98;;
5774;SDS011;2913;51.120;6.772;2023-03-01T09:55:30;20.80;;;8.60;;
5774;SDS011;2913;51.120;6.772;2023-03-01T10:01:51;24.80;;;10.75;;
5774;SDS011;2913;51.120;6.772;2023-03-01T10:07:17;23.42;;;12.05;;
5774;SDS011;2913;51.120;6.772;2023-03-01T10:10:06;23.05;;;10.23;;
5774;SDS011;2913;51.120;6.772;2023-03-01T10:12:48;25.77;;;9.82;;
5774;SDS011;2913;51.120;6.772;2023-03-01T10:15:18;22.75;;;9.38;;
5774;SDS011;2913;51.120;6.772;2023-03-01T10:17:51;21.88;;;9.65;;
5774;SDS011;2913;51.120;6.772;2023-03-01T10:20:24;20.90;;;9.13;;
5774;SDS011;2913;51.120;6.772;2023-03-01T10:22:52;19.63;;;9.40;;
5774;SDS011;2913;51.120;6.772;2023-03-01T10:27:52;21.88;;;9.52;;
5774;SDS011;2913;51.120;6.772;2023-03-01T10:32:55;17.23;;;8.13;;
5774;SDS011;2913;51.120;6.772;2023-03-01T10:35:25;24.10;;;9.55;;
5774;SDS011;2913;51.120;6.772;2023-03-01T10:40:34;16.35;;;8.55;;
5774;SDS011;2913;51.120;6.772;2023-03-01T10:43:02;24.00;;;10.82;;
5774;SDS011;2913;51.120;6.772;2023-03-01T10:50:33;21.30;;;9.25;;
5774;SDS011;2913;51.120;6.772;2023-03-01T10:53:02;25.92;;;11.27;;
5774;SDS011;2913;51.120;6.772;2023-03-01T10:55:36;20.55;;;9.75;;
5774;SDS011;2913;51.120;6.772;2023-03-01T10:58:08;24.88;;;10.75;;
5774;SDS011;2913;51.120;6.772;2023-03-01T11:00:59;23.63;;;10.07;;
5774;SDS011;2913;51.120;6.772;2023-03-01T11:04:03;18.45;;;8.35;;
5774;SDS011;2913;51.120;6.772;2023-03-01T11:06:37;24.70;;;9.80;;
5774;SDS011;2913;51.120;6.772;2023-03-01T11:11:41;20.17;;;10.20;;
5774;SDS011;2913;51.120;6.772;2023-03-01T11:14:17;21.17;;;9.95;;
5774;SDS011;2913;51.120;6.772;2023-03-01T11:16:47;19.95;;;9.45;;
5774;SDS011;2913;51.120;6.772;2023-03-01T11:19:22;24.02;;;9.77;;
5774;SDS011;2913;51.120;6.772;2023-03-01T11:24:26;17.83;;;8.07;;
5774;SDS011;2913;51.120;6.772;2023-03-01T11:26:59;19.67;;;9.85;;
5774;SDS011;2913;51.120;6.772;2023-03-01T11:29:34;20.27;;;10.00;;
5774;SDS011;2913;51.120;6.772;2023-03-01T11:32:05;23.15;;;10.10;;
5774;SDS011;2913;51.120;6.772;2023-03-01T11:37:44;17.15;;;8.50;;
5774;SDS011;2913;51.120;6.772;2023-03-01T11:40:15;18.95;;;9.73;;
5774;SDS011;2913;51.120;6.772;2023-03-01T11:45:55;20.40;;;9.70;;
5774;SDS011;2913;51.120;6.772;2023-03-01T11:48:42;20.02;;;10.40;;
5774;SDS011;2913;51.120;6.772;2023-03-01T11:56:52;19.63;;;9.35;;
5774;SDS011;2913;51.120;6.772;2023-03-01T11:59:29;21.02;;;10.15;;
5774;SDS011;2913;51.120;6.772;2023-03-01T12:10:26;19.05;;;9.35;;
5774;SDS011;2913;51.120;6.772;2023-03-01T12:13:12;25.58;;;10.32;;
5774;SDS011;2913;51.120;6.772;2023-03-01T12:15:56;22.50;;;10.82;;
5774;SDS011;2913;51.120;6.772;2023-03-01T12:21:49;21.05;;;9.98;;
5774;SDS011;2913;51.120;6.772;2023-03-01T12:38:49;22.67;;;9.73;;
5774;SDS011;2913;51.120;6.772;2023-03-01T12:46:32;18.05;;;10.27;;
5774;SDS011;2913;51.120;6.772;2023-03-01T12:52:35;20.52;;;9.50;;
5774;SDS011;2913;51.120;6.772;2023-03-01T12:54:44;20.48;;;10.50;;
5774;SDS011;2913;51.120;6.772;2023-03-01T13:02:46;19.35;;;9.10;;
5774;SDS011;2913;51.120;6.772;2023-03-01T13:11:02;17.70;;;8.35;;
5774;SDS011;2913;51.120;6.772;2023-03-01T13:13:30;22.48;;;9.63;;
5774;SDS011;2913;51.120;6.772;2023-03-01T13:15:56;25.92;;;9.30;;
5774;SDS011;2913;51.120;6.772;2023-03-01T13:18:42;21.63;;;8.95;;
5774;SDS011;2913;51.120;6.772;2023-03-01T13:21:10;12.65;;;6.22;;
5774;SDS011;2913;51.120;6.772;2023-03-01T13:23:37;16.88;;;8.18;;
5774;SDS011;2913;51.120;6.772;2023-03-01T13:33:54;17.70;;;9.38;;
5774;SDS011;2913;51.120;6.772;2023-03-01T13:46:52;17.55;;;7.93;;
5774;SDS011;2913;51.120;6.772;2023-03-01T13:49:23;17.85;;;8.23;;
5774;SDS011;2913;51.120;6.772;2023-03-01T13:51:52;15.88;;;7.63;;
5774;SDS011;2913;51.120;6.772;2023-03-01T13:54:39;20.33;;;8.65;;
5774;SDS011;2913;51.120;6.772;2023-03-01T13:57:04;15.00;;;7.38;;
5774;SDS011;2913;51.120;6.772;2023-03-01T13:59:30;18.15;;;7.72;;
5774;SDS011;2913;51.120;6.772;2023-03-01T14:01:56;16.48;;;9.43;;
5774;SDS011;2913;51.120;6.772;2023-03-01T14:04:29;12.00;;;6.88;;
5774;SDS011;2913;51.120;6.772;2023-03-01T14:09:46;22.70;;;9.10;;
5774;SDS011;2913;51.120;6.772;2023-03-01T14:17:59;20.85;;;8.88;;
5774;SDS011;2913;51.120;6.772;2023-03-01T14:20:37;23.63;;;8.30;;
5774;SDS011;2913;51.120;6.772;2023-03-01T14:23:13;15.60;;;7.15;;
5774;SDS011;2913;51.120;6.772;2023-03-01T14:25:46;11.50;;;5.95;;
5774;SDS011;2913;51.120;6.772;2023-03-01T14:28:18;19.15;;;8.52;;
5774;SDS011;2913;51.120;6.772;2023-03-01T14:30:50;22.40;;;9.13;;
5774;SDS011;2913;51.120;6.772;2023-03-01T14:36:08;16.10;;;8.60;;
5774;SDS011;2913;51.120;6.772;2023-03-01T14:38:36;18.25;;;8.13;;
5774;SDS011;2913;51.120;6.772;2023-03-01T14:41:05;27.00;;;9.13;;
5774;SDS011;2913;51.120;6.772;2023-03-01T14:43:50;20.77;;;8.43;;
5774;SDS011;2913;51.120;6.772;2023-03-01T14:48:51;19.25;;;8.90;;
5774;SDS011;2913;51.120;6.772;2023-03-01T14:51:23;18.10;;;7.38;;
5774;SDS011;2913;51.120;6.772;2023-03-01T14:53:49;11.18;;;6.35;;
5774;SDS011;2913;51.120;6.772;2023-03-01T14:56:16;15.68;;;7.85;;
5774;SDS011;2913;51.120;6.772;2023-03-01T14:58:44;16.13;;;7.90;;
5774;SDS011;2913;51.120;6.772;2023-03-01T15:01:14;21.17;;;8.68;;
5774;SDS011;2913;51.120;6.772;2023-03-01T15:03:45;20.55;;;8.48;;
5774;SDS011;2913;51.120;6.772;2023-03-01T15:06:22;19.27;;;6.95;;
5774;SDS011;2913;51.120;6.772;2023-03-01T15:08:51;18.67;;;8.90;;
5774;SDS011;2913;51.120;6.772;2023-03-01T15:11:31;15.80;;;6.57;;
5774;SDS011;2913;51.120;6.772;2023-03-01T15:14:00;15.60;;;7.85;;
5774;SDS011;2913;51.120;6.772;2023-03-01T15:16:45;14.15;;;7.53;;
5774;SDS011;2913;51.120;6.772;2023-03-01T15:19:15;13.55;;;7.15;;
5774;SDS011;2913;51.120;6.772;2023-03-01T15:21:46;12.18;;;5.70;;
5774;SDS011;2913;51.120;6.772;2023-03-01T15:24:18;18.15;;;7.40;;
5774;SDS011;2913;51.120;6.772;2023-03-01T15:31:56;12.80;;;6.13;;
5774;SDS011;2913;51.120;6.772;2023-03-01T15:36:59;13.43;;;6.90;;
5774;SDS011;2913;51.120;6.772;2023-03-01T15:39:30;13.18;;;6.65;;
5774;SDS011;2913;51.120;6.772;2023-03-01T15:42:05;15.25;;;6.95;;
5774;SDS011;2913;51.120;6.772;2023-03-01T15:44:34;16.65;;;7.47;;
5774;SDS011;2913;51.120;6.772;2023-03-01T15:47:01;30.02;;;7.95;;
5774;SDS011;2913;51.120;6.772;2023-03-01T15:49:38;15.50;;;7.10;;
5774;SDS011;2913;51.120;6.772;2023-03-01T15:52:09;14.90;;;7.20;;
5774;SDS011;2913;51.120;6.772;2023-03-01T15:54:41;15.65;;;7.45;;
5774;SDS011;2913;51.120;6.772;2023-03-01T15:57:12;15.18;;;7.07;;
5774;SDS011;2913;51.120;6.772;2023-03-01T15:59:43;13.65;;;6.93;;
5774;SDS011;2913;51.120;6.772;2023-03-01T16:02:10;14.30;;;7.50;;
5774;SDS011;2913;51.120;6.772;2023-03-01T16:04:39;18.02;;;7.88;;
5774;SDS011;2913;51.120;6.772;2023-03-01T16:07:04;15.98;;;7.07;;
5774;SDS011;2913;51.120;6.772;2023-03-01T16:09:30;13.75;;;6.38;;
5774;SDS011;2913;51.120;6.772;2023-03-01T16:11:59;15.15;;;7.30;;
5774;SDS011;2913;51.120;6.772;2023-03-01T16:14:26;16.70;;;7.28;;
5774;SDS011;2913;51.120;6.772;2023-03-01T16:16:52;14.90;;;7.22;;
5774;SDS011;2913;51.120;6.772;2023-03-01T16:19:17;19.27;;;7.97;;
5774;SDS011;2913;51.120;6.772;2023-03-01T16:21:46;16.70;;;7.00;;
5774;SDS011;2913;51.120;6.772;2023-03-01T16:24:14;19.38;;;8.05;;
5774;SDS011;2913;51.120;6.772;2023-03-01T16:26:40;15.85;;;6.97;;
5774;SDS011;2913;51.120;6.772;2023-03-01T16:29:08;13.93;;;6.65;;
5774;SDS011;2913;51.120;6.772;2023-03-01T16:31:33;16.42;;;7.43;;
5774;SDS011;2913;51.120;6.772;2023-03-01T16:33:59;11.82;;;5.88;;
5774;SDS011;2913;51.120;6.772;2023-03-01T16:36:30;10.90;;;5.70;;
5774;SDS011;2913;51.120;6.772;2023-03-01T16:38:57;14.52;;;6.07;;
5774;SDS011;2913;51.120;6.772;2023-03-01T16:41:28;13.35;;;6.53;;
5774;SDS011;2913;51.120;6.772;2023-03-01T16:43:54;14.40;;;7.00;;
5774;SDS011;2913;51.120;6.772;2023-03-01T16:46:23;15.27;;;7.05;;
5774;SDS011;2913;51.120;6.772;2023-03-01T16:48:51;18.00;;;6.78;;
5774;SDS011;2913;51.120;6.772;2023-03-01T16:51:17;14.75;;;7.45;;
5774;SDS011;2913;51.120;6.772;2023-03-01T16:53:43;17.55;;;7.47;;
5774;SDS011;2913;51.120;6.772;2023-03-01T16:56:10;13.32;;;5.35;;
5774;SDS011;2913;51.120;6.772;2023-03-01T16:58:39;20.60;;;6.72;;
5774;SDS011;2913;51.120;6.772;2023-03-01T17:01:09;16.15;;;6.18;;
5774;SDS011;2913;51.120;6.772;2023-03-01T17:03:40;15.73;;;7.70;;
5774;SDS011;2913;51.120;6.772;2023-03-01T17:06:08;13.77;;;7.40;;
5774;SDS011;2913;51.120;6.772;2023-03-01T17:08:36;13.45;;;7.28;;
5774;SDS011;2913;51.120;6.772;2023-03-01T17:11:03;25.17;;;7.97;;
5774;SDS011;2913;51.120;6.772;2023-03-01T17:13:30;16.75;;;6.75;;
5774;SDS011;2913;51.120;6.772;2023-03-01T17:15:56;21.63;;;7.68;;
5774;SDS011;2913;51.120;6.772;2023-03-01T17:18:22;17.42;;;8.20;;
5774;SDS011;2913;51.120;6.772;2023-03-01T17:20:49;14.75;;;7.38;;
5774;SDS011;2913;51.120;6.772;2023-03-01T17:23:17;23.60;;;9.18;;
5774;SDS011;2913;51.120;6.772;2023-03-01T17:25:43;13.70;;;7.28;;
5774;SDS011;2913;51.120;6.772;2023-03-01T17:28:10;13.55;;;6.93;;
5774;SDS011;2913;51.120;6.772;2023-03-01T17:30:36;21.05;;;7.28;;
5774;SDS011;2913;51.120;6.772;2023-03-01T17:33:05;20.05;;;9.45;;
5774;SDS011;2913;51.120;6.772;2023-03-01T17:35:33;23.42;;;8.50;;
5774;SDS011;2913;51.120;6.772;2023-03-01T17:38:01;15.68;;;6.55;;
5774;SDS011;2913;51.120;6.772;2023-03-01T17:40:32;16.50;;;7.45;;
5774;SDS011;2913;51.120;6.772;2023-03-01T17:43:01;20.92;;;7.75;;
5774;SDS011;2913;51.120;6.772;2023-03-01T17:45:29;16.80;;;7.60;;